Pagrindinis puslapis
METAR-TAF:

METAR-TAF

Oro uostai :

Aghajari, Iranas

platuma: 30-46N, ilguma: 049-40E, Aukštis: 29 m

Dabartinis oras

Ataskaita buvo paskelbta 5 valandos ir 44 minutes, ne 17:00 UTC
Vėjas 16 kt iš Šiaurės/Šiaurės Vakarų
Temperatūra 40°C
Drėgmė 7%
Slėgis 1001 hPa
Matomumas 10 km arba daugiau
nėra debesų žemiau 1500 m ir nėra kamuolinių lietaus debesų

METAR: OIAG 051700Z 33016KT CAVOK 40/M02 Q1001

Laikas: 03:14 (22:44 UTC)


TAF: trūkstamas

Orai ataskaitas ir orų prognozės (METAR, TAF).

turimą stotys yra geltonos ir raudonos taškus žemėlapyje.

Perkelti pele per norėdami pamatyti stoties vardą.

Tada spustelėkite, norėdami matyti oro stebėjimo ir prognozės.

Norėdami pakeisti žemėlapį: spustelėkite ant žalios mygtukų su juodo kryžiaus žemyn,; žalią mygtuką su brūkšneliu, jei norite nutolinti; arba žalių rodyklių gretimoms žemėlapius.


METAR-TAF: